createdAt,value
2022-11-05T00:05:21.250Z,99.90
2022-11-05T00:15:46.121Z,99.90
2022-11-05T00:25:57.588Z,99.90
2022-11-05T00:36:03.786Z,99.90
2022-11-05T00:46:07.510Z,99.90
2022-11-05T00:56:12.526Z,99.90
2022-11-05T01:06:18.206Z,99.90
2022-11-05T01:16:23.193Z,99.90
2022-11-05T01:26:28.086Z,99.90
2022-11-05T01:36:33.135Z,99.90
2022-11-05T01:46:43.991Z,99.90
2022-11-05T01:56:54.378Z,99.90
2022-11-05T02:06:58.964Z,99.90
2022-11-05T02:17:09.908Z,99.90
2022-11-05T02:27:22.086Z,99.90
2022-11-05T02:37:39.087Z,99.90
2022-11-05T02:47:46.900Z,99.90
2022-11-05T02:57:51.891Z,99.90
2022-11-05T03:08:02.551Z,99.90
2022-11-05T03:18:14.618Z,99.90
2022-11-05T03:28:23.625Z,99.90
2022-11-05T03:38:34.143Z,99.90
2022-11-05T03:48:42.979Z,99.90
2022-11-05T03:58:53.443Z,99.90
2022-11-05T04:09:19.063Z,99.90
2022-11-05T04:19:38.040Z,99.90
2022-11-05T04:29:59.537Z,99.90
2022-11-05T04:40:04.863Z,99.90
2022-11-05T04:50:10.475Z,99.90
2022-11-05T05:00:16.187Z,99.90
2022-11-05T05:10:20.289Z,99.90
2022-11-05T05:20:44.047Z,99.90
2022-11-05T05:30:50.984Z,99.90
2022-11-05T05:40:59.440Z,99.90
2022-11-05T05:51:04.129Z,99.90
2022-11-05T06:01:18.645Z,99.90
2022-11-05T06:11:23.602Z,99.90
2022-11-05T06:21:28.680Z,99.90
2022-11-05T06:31:35.013Z,99.90
2022-11-05T06:42:03.821Z,99.90
2022-11-05T06:52:04.529Z,99.90
2022-11-05T07:02:13.869Z,99.90
2022-11-05T07:12:17.671Z,99.90
2022-11-05T07:22:22.850Z,99.90
2022-11-05T07:32:26.640Z,99.90
2022-11-05T07:42:31.804Z,99.90
2022-11-05T07:52:35.545Z,99.90
2022-11-05T08:02:41.299Z,99.90
2022-11-05T08:12:45.136Z,99.90
2022-11-05T08:22:50.201Z,99.90
2022-11-05T08:32:58.795Z,99.90
2022-11-05T08:43:06.651Z,99.90
2022-11-05T08:53:11.614Z,99.90
2022-11-05T09:03:17.661Z,99.90
2022-11-05T09:13:21.835Z,99.90
2022-11-05T09:23:27.008Z,99.90
2022-11-05T09:33:30.972Z,99.90
2022-11-05T09:43:41.912Z,99.90
2022-11-05T09:53:47.301Z,99.90
2022-11-05T10:03:55.697Z,99.90
2022-11-05T10:14:04.797Z,99.90
2022-11-05T10:24:16.005Z,99.90
2022-11-05T10:34:21.024Z,99.90
2022-11-05T10:44:37.686Z,99.90
2022-11-05T10:54:42.185Z,99.90
2022-11-05T11:04:52.940Z,99.90
2022-11-05T11:15:02.945Z,99.90
2022-11-05T11:25:25.744Z,99.90
2022-11-05T11:35:29.732Z,99.90
2022-11-05T11:45:39.492Z,99.90
2022-11-05T11:55:58.135Z,99.90
2022-11-05T12:06:21.984Z,99.90
2022-11-05T12:16:55.221Z,99.90
2022-11-05T12:27:17.252Z,99.90
2022-11-05T12:37:30.654Z,99.90
2022-11-05T12:48:01.139Z,99.90
2022-11-05T12:58:12.193Z,98.60
2022-11-05T13:08:22.940Z,97.50
2022-11-05T13:18:32.249Z,98.20
2022-11-05T13:28:46.775Z,99.50
2022-11-05T13:39:03.588Z,99.60
2022-11-05T13:49:45.158Z,99.80
2022-11-05T14:00:06.172Z,98.40
2022-11-05T14:10:27.060Z,99.90
2022-11-05T14:20:48.071Z,99.90
2022-11-05T14:30:53.243Z,99.90
2022-11-05T14:41:01.665Z,99.90
2022-11-05T14:51:26.656Z,99.90
2022-11-05T15:01:55.026Z,99.90
2022-11-05T15:12:12.112Z,99.90
2022-11-05T15:22:29.100Z,99.90
2022-11-05T15:32:38.572Z,99.90
2022-11-05T15:42:42.309Z,99.90
2022-11-05T15:52:53.805Z,99.90
2022-11-05T16:03:01.680Z,99.90
2022-11-05T16:13:33.292Z,99.90
2022-11-05T16:23:46.917Z,99.90
2022-11-05T16:33:52.477Z,99.90
2022-11-05T16:43:58.391Z,99.90
2022-11-05T16:54:03.385Z,99.90
2022-11-05T17:04:07.004Z,99.90
2022-11-05T17:14:14.187Z,99.90
2022-11-05T17:24:17.822Z,99.90
2022-11-05T17:34:25.914Z,99.90
2022-11-05T17:44:29.550Z,99.90
2022-11-05T17:54:34.566Z,99.90
2022-11-05T18:04:38.468Z,99.90
2022-11-05T18:14:43.577Z,99.90
2022-11-05T18:24:48.225Z,99.90
2022-11-05T18:34:53.270Z,99.90
2022-11-05T18:44:56.951Z,99.90
2022-11-05T18:55:04.465Z,99.90
2022-11-05T19:05:28.606Z,99.90
2022-11-05T19:15:34.346Z,99.90
2022-11-05T19:25:38.928Z,99.90
2022-11-05T19:35:44.078Z,99.90
2022-11-05T19:45:47.896Z,99.90
2022-11-05T19:55:53.121Z,99.90
2022-11-05T20:06:02.451Z,99.90
2022-11-05T20:16:08.668Z,99.90
2022-11-05T20:26:13.838Z,99.90
2022-11-05T20:36:24.301Z,99.90
2022-11-05T20:46:28.397Z,99.90
2022-11-05T20:56:35.576Z,99.90
2022-11-05T21:06:39.314Z,99.90
2022-11-05T21:16:44.655Z,99.90
2022-11-05T21:26:49.863Z,99.90
2022-11-05T21:36:54.985Z,99.90
2022-11-05T21:46:59.609Z,99.90
2022-11-05T21:57:22.463Z,99.90
2022-11-05T22:07:29.693Z,99.90
2022-11-05T22:17:34.640Z,99.90
2022-11-05T22:27:38.334Z,99.90
2022-11-05T22:37:43.343Z,99.90
2022-11-05T22:47:47.347Z,99.90
2022-11-05T22:57:52.393Z,99.90
2022-11-05T23:08:14.127Z,99.90
2022-11-05T23:18:37.129Z,99.90
2022-11-05T23:28:40.771Z,99.90
2022-11-05T23:38:45.804Z,99.90
2022-11-05T23:48:49.535Z,99.90
2022-11-05T23:58:54.555Z,99.90
